sensor_id;sensor_type;location;lat;lon;timestamp;pressure;altitude;pressure_sealevel;temperature;humidity
65557;BME280;52200;53.490;14.376;2024-01-30T00:02:21;102743.31;;;0.63;80.92
65557;BME280;52200;53.490;14.376;2024-01-30T00:04:47;102737.03;;;0.54;80.41
65557;BME280;52200;53.490;14.376;2024-01-30T00:07:12;102742.03;;;0.54;80.59
65557;BME280;52200;53.490;14.376;2024-01-30T00:09:38;102739.47;;;0.52;80.29
65557;BME280;52200;53.490;14.376;2024-01-30T00:12:05;102743.88;;;0.58;80.42
65557;BME280;52200;53.490;14.376;2024-01-30T00:14:31;102740.66;;;0.42;80.93
65557;BME280;52200;53.490;14.376;2024-01-30T00:16:56;102745.31;;;0.18;81.46
65557;BME280;52200;53.490;14.376;2024-01-30T00:19:22;102740.25;;;0.17;81.57
65557;BME280;52200;53.490;14.376;2024-01-30T00:21:47;102739.84;;;-0.26;81.87
65557;BME280;52200;53.490;14.376;2024-01-30T00:24:13;102735.59;;;-0.43;84.35
65557;BME280;52200;53.490;14.376;2024-01-30T00:26:38;102738.34;;;-0.06;83.50
65557;BME280;52200;53.490;14.376;2024-01-30T00:29:04;102735.97;;;0.14;82.76
65557;BME280;52200;53.490;14.376;2024-01-30T00:31:29;102738.69;;;0.19;82.43
65557;BME280;52200;53.490;14.376;2024-01-30T00:33:55;102735.78;;;0.27;82.27
65557;BME280;52200;53.490;14.376;2024-01-30T00:36:20;102729.13;;;0.28;81.96
65557;BME280;52200;53.490;14.376;2024-01-30T00:38:46;102739.09;;;-0.40;83.08
65557;BME280;52200;53.490;14.376;2024-01-30T00:41:11;102737.28;;;-0.75;86.14
65557;BME280;52200;53.490;14.376;2024-01-30T00:43:37;102743.47;;;-0.19;85.87
65557;BME280;52200;53.490;14.376;2024-01-30T00:46:02;102740.19;;;-0.02;84.11
65557;BME280;52200;53.490;14.376;2024-01-30T00:48:28;102734.91;;;-0.24;84.62
65557;BME280;52200;53.490;14.376;2024-01-30T00:50:54;102731.69;;;-0.05;84.71
65557;BME280;52200;53.490;14.376;2024-01-30T00:53:19;102728.09;;;0.06;83.48
65557;BME280;52200;53.490;14.376;2024-01-30T00:55:45;102739.38;;;0.16;83.13
65557;BME280;52200;53.490;14.376;2024-01-30T00:58:10;102728.53;;;0.15;83.34
65557;BME280;52200;53.490;14.376;2024-01-30T01:00:36;102736.25;;;0.20;82.52
65557;BME280;52200;53.490;14.376;2024-01-30T01:03:02;102729.25;;;0.13;82.25
65557;BME280;52200;53.490;14.376;2024-01-30T01:05:28;102734.47;;;0.01;82.60
65557;BME280;52200;53.490;14.376;2024-01-30T01:07:53;102730.34;;;0.02;82.96
65557;BME280;52200;53.490;14.376;2024-01-30T01:10:19;102739.72;;;0.06;82.51
65557;BME280;52200;53.490;14.376;2024-01-30T01:12:45;102727.44;;;0.10;81.71
65557;BME280;52200;53.490;14.376;2024-01-30T01:15:11;102732.53;;;0.12;81.64
65557;BME280;52200;53.490;14.376;2024-01-30T01:17:37;102725.13;;;-0.03;82.56
65557;BME280;52200;53.490;14.376;2024-01-30T01:20:04;102719.91;;;-0.08;81.97
65557;BME280;52200;53.490;14.376;2024-01-30T01:22:30;102714.59;;;-0.14;82.59
65557;BME280;52200;53.490;14.376;2024-01-30T01:24:56;102713.47;;;-0.03;82.68
65557;BME280;52200;53.490;14.376;2024-01-30T01:27:21;102710.31;;;0.00;82.11
65557;BME280;52200;53.490;14.376;2024-01-30T01:29:47;102712.94;;;0.03;82.73
65557;BME280;52200;53.490;14.376;2024-01-30T01:32:12;102714.75;;;-0.11;82.58
65557;BME280;52200;53.490;14.376;2024-01-30T01:34:37;102702.44;;;-0.24;82.70
65557;BME280;52200;53.490;14.376;2024-01-30T01:37:03;102705.88;;;-0.22;82.68
65557;BME280;52200;53.490;14.376;2024-01-30T01:39:29;102705.63;;;-0.10;82.97
65557;BME280;52200;53.490;14.376;2024-01-30T01:41:54;102710.69;;;-0.09;82.95
65557;BME280;52200;53.490;14.376;2024-01-30T01:44:20;102709.78;;;-0.11;82.86
65557;BME280;52200;53.490;14.376;2024-01-30T01:46:45;102710.69;;;-0.09;83.01
65557;BME280;52200;53.490;14.376;2024-01-30T01:49:11;102710.19;;;-0.02;82.84
65557;BME280;52200;53.490;14.376;2024-01-30T01:51:38;102715.59;;;-0.10;82.84
65557;BME280;52200;53.490;14.376;2024-01-30T01:54:06;102708.75;;;-0.31;83.00
65557;BME280;52200;53.490;14.376;2024-01-30T01:56:33;102711.31;;;-0.13;83.14
65557;BME280;52200;53.490;14.376;2024-01-30T01:59:08;102711.50;;;-0.43;84.59
65557;BME280;52200;53.490;14.376;2024-01-30T02:01:36;102712.97;;;-0.30;84.63
65557;BME280;52200;53.490;14.376;2024-01-30T02:04:02;102711.50;;;-0.10;84.18
65557;BME280;52200;53.490;14.376;2024-01-30T02:06:28;102712.47;;;-0.06;83.83
65557;BME280;52200;53.490;14.376;2024-01-30T02:08:54;102706.00;;;-0.03;84.12
65557;BME280;52200;53.490;14.376;2024-01-30T02:11:20;102699.78;;;-0.27;84.17
65557;BME280;52200;53.490;14.376;2024-01-30T02:13:46;102714.06;;;-0.08;84.58
65557;BME280;52200;53.490;14.376;2024-01-30T02:16:11;102710.31;;;0.00;83.80
65557;BME280;52200;53.490;14.376;2024-01-30T02:18:36;102717.31;;;-0.09;83.53
65557;BME280;52200;53.490;14.376;2024-01-30T02:21:07;102706.69;;;-0.05;84.15
65557;BME280;52200;53.490;14.376;2024-01-30T02:23:33;102713.47;;;-0.03;84.41
65557;BME280;52200;53.490;14.376;2024-01-30T02:25:59;102717.41;;;-0.08;83.94
65557;BME280;52200;53.490;14.376;2024-01-30T02:28:25;102708.50;;;-0.19;84.16
65557;BME280;52200;53.490;14.376;2024-01-30T02:30:51;102714.34;;;-0.19;84.60
65557;BME280;52200;53.490;14.376;2024-01-30T02:33:16;102709.91;;;-0.08;84.52
65557;BME280;52200;53.490;14.376;2024-01-30T02:35:42;102706.50;;;-0.10;83.93
65557;BME280;52200;53.490;14.376;2024-01-30T02:38:07;102706.00;;;-0.03;83.31
65557;BME280;52200;53.490;14.376;2024-01-30T02:40:33;102691.81;;;-0.04;83.73
65557;BME280;52200;53.490;14.376;2024-01-30T02:42:59;102712.94;;;0.03;84.60
65557;BME280;52200;53.490;14.376;2024-01-30T02:45:25;102707.22;;;0.06;84.00
65557;BME280;52200;53.490;14.376;2024-01-30T02:47:50;102705.31;;;0.00;84.04
65557;BME280;52200;53.490;14.376;2024-01-30T02:50:16;102709.34;;;-0.85;85.23
65557;BME280;52200;53.490;14.376;2024-01-30T02:52:42;102706.50;;;-0.43;86.10
65557;BME280;52200;53.490;14.376;2024-01-30T02:55:10;102702.91;;;-0.48;86.39
65557;BME280;52200;53.490;14.376;2024-01-30T02:57:36;102701.78;;;-0.86;87.25
65557;BME280;52200;53.490;14.376;2024-01-30T03:00:02;102694.94;;;-0.74;88.12
65557;BME280;52200;53.490;14.376;2024-01-30T03:02:29;102709.63;;;-0.47;87.06
65557;BME280;52200;53.490;14.376;2024-01-30T03:04:54;102693.09;;;-0.28;85.90
65557;BME280;52200;53.490;14.376;2024-01-30T03:07:20;102696.25;;;-0.31;85.64
65557;BME280;52200;53.490;14.376;2024-01-30T03:09:45;102704.78;;;-0.11;85.03
65557;BME280;52200;53.490;14.376;2024-01-30T03:12:11;102694.47;;;-0.17;84.89
65557;BME280;52200;53.490;14.376;2024-01-30T03:14:36;102692.28;;;-0.27;85.02
65557;BME280;52200;53.490;14.376;2024-01-30T03:17:04;102698.06;;;-0.12;85.68
65557;BME280;52200;53.490;14.376;2024-01-30T03:19:30;102692.41;;;-0.08;84.58
65557;BME280;52200;53.490;14.376;2024-01-30T03:21:55;102695.88;;;-0.55;86.40
65557;BME280;52200;53.490;14.376;2024-01-30T03:24:21;102701.84;;;-0.85;87.17
65557;BME280;52200;53.490;14.376;2024-01-30T03:26:46;102697.34;;;-0.42;87.41
65557;BME280;52200;53.490;14.376;2024-01-30T03:29:12;102694.63;;;-0.80;87.73
65557;BME280;52200;53.490;14.376;2024-01-30T03:31:38;102697.75;;;-0.51;87.44
65557;BME280;52200;53.490;14.376;2024-01-30T03:34:03;102693.09;;;-0.28;86.52
65557;BME280;52200;53.490;14.376;2024-01-30T03:36:29;102698.38;;;-0.39;86.38
65557;BME280;52200;53.490;14.376;2024-01-30T03:38:58;102700.31;;;-0.50;85.95
65557;BME280;52200;53.490;14.376;2024-01-30T03:41:23;102694.47;;;-0.50;86.60
65557;BME280;52200;53.490;14.376;2024-01-30T03:43:48;102697.91;;;-0.65;86.66
65557;BME280;52200;53.490;14.376;2024-01-30T03:46:14;102692.75;;;-0.84;88.23
65557;BME280;52200;53.490;14.376;2024-01-30T03:48:39;102699.88;;;-0.59;87.38
65557;BME280;52200;53.490;14.376;2024-01-30T03:51:05;102694.03;;;-0.59;87.67
65557;BME280;52200;53.490;14.376;2024-01-30T03:53:30;102686.91;;;-0.35;86.75
65557;BME280;52200;53.490;14.376;2024-01-30T03:55:56;102694.97;;;-0.41;86.32
65557;BME280;52200;53.490;14.376;2024-01-30T03:58:22;102695.41;;;-0.31;86.06
65557;BME280;52200;53.490;14.376;2024-01-30T04:00:47;102690.91;;;-0.22;86.02
65557;BME280;52200;53.490;14.376;2024-01-30T04:03:14;102694.47;;;-0.17;85.28
65557;BME280;52200;53.490;14.376;2024-01-30T04:05:39;102696.25;;;-0.14;84.84
65557;BME280;52200;53.490;14.376;2024-01-30T04:08:05;102691.34;;;-0.13;84.76
65557;BME280;52200;53.490;14.376;2024-01-30T04:10:31;102689.78;;;-0.11;84.24
65557;BME280;52200;53.490;14.376;2024-01-30T04:12:56;102693.06;;;-0.12;84.78
65557;BME280;52200;53.490;14.376;2024-01-30T04:15:21;102696.34;;;-0.13;84.31
65557;BME280;52200;53.490;14.376;2024-01-30T04:17:47;102693.69;;;-0.33;84.51
65557;BME280;52200;53.490;14.376;2024-01-30T04:20:16;102697.78;;;-0.35;85.43
65557;BME280;52200;53.490;14.376;2024-01-30T04:22:45;102697.28;;;-0.27;84.21
65557;BME280;52200;53.490;14.376;2024-01-30T04:25:12;102700.00;;;-0.23;84.59
65557;BME280;52200;53.490;14.376;2024-01-30T04:27:38;102692.63;;;-0.54;85.43
65557;BME280;52200;53.490;14.376;2024-01-30T04:30:04;102697.50;;;-0.56;85.46
65557;BME280;52200;53.490;14.376;2024-01-30T04:32:29;102696.16;;;-0.99;87.65
65557;BME280;52200;53.490;14.376;2024-01-30T04:34:55;102700.91;;;-0.87;88.47
65557;BME280;52200;53.490;14.376;2024-01-30T04:37:22;102703.50;;;-0.85;89.12
65557;BME280;52200;53.490;14.376;2024-01-30T04:39:47;102693.84;;;-0.79;89.43
65557;BME280;52200;53.490;14.376;2024-01-30T04:42:12;102691.13;;;-0.67;89.31
65557;BME280;52200;53.490;14.376;2024-01-30T04:44:38;102695.00;;;-0.56;88.67
65557;BME280;52200;53.490;14.376;2024-01-30T04:47:03;102695.94;;;-0.37;88.18
65557;BME280;52200;53.490;14.376;2024-01-30T04:49:31;102694.72;;;-0.29;86.74
65557;BME280;52200;53.490;14.376;2024-01-30T04:51:56;102698.16;;;-0.27;86.86
65557;BME280;52200;53.490;14.376;2024-01-30T04:54:23;102708.38;;;-0.22;86.36
65557;BME280;52200;53.490;14.376;2024-01-30T04:56:48;102706.09;;;-0.18;85.85
65557;BME280;52200;53.490;14.376;2024-01-30T04:59:14;102698.22;;;-0.25;85.84
65557;BME280;52200;53.490;14.376;2024-01-30T05:01:39;102697.69;;;-0.20;85.64
65557;BME280;52200;53.490;14.376;2024-01-30T05:04:07;102697.28;;;-0.11;85.29
65557;BME280;52200;53.490;14.376;2024-01-30T05:06:33;102694.91;;;-0.08;85.21
65557;BME280;52200;53.490;14.376;2024-01-30T05:08:58;102699.47;;;-0.17;84.72
65557;BME280;52200;53.490;14.376;2024-01-30T05:11:24;102700.88;;;-0.22;85.57
65557;BME280;52200;53.490;14.376;2024-01-30T05:13:49;102697.50;;;-0.23;85.33
65557;BME280;52200;53.490;14.376;2024-01-30T05:16:14;102701.50;;;-0.10;84.98
65557;BME280;52200;53.490;14.376;2024-01-30T05:18:40;102702.56;;;-0.05;84.67
65557;BME280;52200;53.490;14.376;2024-01-30T05:21:05;102695.69;;;-0.09;84.62
65557;BME280;52200;53.490;14.376;2024-01-30T05:23:31;102700.78;;;-0.07;84.18
65557;BME280;52200;53.490;14.376;2024-01-30T05:25:56;102700.91;;;-0.04;84.41
65557;BME280;52200;53.490;14.376;2024-01-30T05:28:22;102691.63;;;-0.07;84.26
65557;BME280;52200;53.490;14.376;2024-01-30T05:30:47;102684.44;;;-0.01;83.79
65557;BME280;52200;53.490;14.376;2024-01-30T05:33:13;102686.50;;;-0.10;84.55
65557;BME280;52200;53.490;14.376;2024-01-30T05:35:38;102679.31;;;-0.20;84.41
65557;BME280;52200;53.490;14.376;2024-01-30T05:38:04;102676.88;;;-0.19;84.31
65557;BME280;52200;53.490;14.376;2024-01-30T05:40:30;102682.78;;;-0.51;85.74
65557;BME280;52200;53.490;14.376;2024-01-30T05:42:56;102679.69;;;-0.47;86.46
65557;BME280;52200;53.490;14.376;2024-01-30T05:45:23;102683.88;;;-0.29;86.67
65557;BME280;52200;53.490;14.376;2024-01-30T05:47:49;102678.03;;;-0.46;86.56
65557;BME280;52200;53.490;14.376;2024-01-30T05:50:14;102678.09;;;-0.45;87.16
65557;BME280;52200;53.490;14.376;2024-01-30T05:52:40;102679.81;;;-0.44;86.84
65557;BME280;52200;53.490;14.376;2024-01-30T05:55:05;102683.25;;;-0.42;87.35
65557;BME280;52200;53.490;14.376;2024-01-30T05:57:31;102680.13;;;-0.38;86.39
65557;BME280;52200;53.490;14.376;2024-01-30T05:59:56;102679.19;;;-0.23;86.62
65557;BME280;52200;53.490;14.376;2024-01-30T06:02:22;102677.19;;;-0.12;86.59
65557;BME280;52200;53.490;14.376;2024-01-30T06:04:47;102675.59;;;-0.28;86.51
65557;BME280;52200;53.490;14.376;2024-01-30T06:07:13;102669.06;;;-0.43;86.99
65557;BME280;52200;53.490;14.376;2024-01-30T06:09:38;102673.16;;;-0.43;87.51
65557;BME280;52200;53.490;14.376;2024-01-30T06:12:05;102674.19;;;-0.56;87.44
65557;BME280;52200;53.490;14.376;2024-01-30T06:14:30;102673.09;;;-0.28;87.70
65557;BME280;52200;53.490;14.376;2024-01-30T06:16:56;102666.94;;;-0.35;86.19
65557;BME280;52200;53.490;14.376;2024-01-30T06:19:21;102667.16;;;-0.80;87.94
65557;BME280;52200;53.490;14.376;2024-01-30T06:21:47;102667.94;;;-0.65;88.35
65557;BME280;52200;53.490;14.376;2024-01-30T06:24:12;102670.97;;;-0.37;87.12
65557;BME280;52200;53.490;14.376;2024-01-30T06:26:37;102671.59;;;-0.74;86.93
65557;BME280;52200;53.490;14.376;2024-01-30T06:29:03;102683.00;;;-1.27;89.64
65557;BME280;52200;53.490;14.376;2024-01-30T06:31:28;102678.47;;;-1.18;91.20
65557;BME280;52200;53.490;14.376;2024-01-30T06:33:54;102680.03;;;-0.89;90.56
65557;BME280;52200;53.490;14.376;2024-01-30T06:36:19;102684.19;;;-0.73;89.61
65557;BME280;52200;53.490;14.376;2024-01-30T06:38:45;102687.06;;;-0.65;89.27
65557;BME280;52200;53.490;14.376;2024-01-30T06:41:10;102686.53;;;-0.59;88.81
65557;BME280;52200;53.490;14.376;2024-01-30T06:43:36;102682.72;;;-0.69;89.45
65557;BME280;52200;53.490;14.376;2024-01-30T06:46:01;102684.03;;;-0.59;88.99
65557;BME280;52200;53.490;14.376;2024-01-30T06:48:26;102683.41;;;-0.55;89.00
65557;BME280;52200;53.490;14.376;2024-01-30T06:50:56;102682.16;;;-0.47;88.24
65557;BME280;52200;53.490;14.376;2024-01-30T06:53:22;102688.09;;;-0.28;87.72
65557;BME280;52200;53.490;14.376;2024-01-30T06:55:48;102693.22;;;-0.25;86.32
65557;BME280;52200;53.490;14.376;2024-01-30T06:58:13;102681.22;;;-0.33;86.97
65557;BME280;52200;53.490;14.376;2024-01-30T07:00:39;102681.84;;;-0.37;86.66
65557;BME280;52200;53.490;14.376;2024-01-30T07:03:04;102679.97;;;-0.41;86.90
65557;BME280;52200;53.490;14.376;2024-01-30T07:05:30;102681.47;;;-0.44;86.88
65557;BME280;52200;53.490;14.376;2024-01-30T07:07:55;102678.72;;;-0.49;86.61
65557;BME280;52200;53.490;14.376;2024-01-30T07:10:20;102678.41;;;-0.39;86.82
65557;BME280;52200;53.490;14.376;2024-01-30T07:12:46;102680.13;;;-0.38;86.78
65557;BME280;52200;53.490;14.376;2024-01-30T07:15:11;102673.19;;;-0.76;88.10
65557;BME280;52200;53.490;14.376;2024-01-30T07:17:39;102670.75;;;-0.58;88.01
65557;BME280;52200;53.490;14.376;2024-01-30T07:20:05;102661.16;;;-0.34;87.52
65557;BME280;52200;53.490;14.376;2024-01-30T07:22:31;102662.00;;;-0.17;86.60
65557;BME280;52200;53.490;14.376;2024-01-30T07:24:57;102660.75;;;-0.25;85.91
65557;BME280;52200;53.490;14.376;2024-01-30T07:27:22;102651.53;;;-0.10;86.10
65557;BME280;52200;53.490;14.376;2024-01-30T07:29:47;102654.66;;;-0.14;86.21
65557;BME280;52200;53.490;14.376;2024-01-30T07:32:13;102657.75;;;-0.53;87.25
65557;BME280;52200;53.490;14.376;2024-01-30T07:34:38;102660.22;;;-0.36;87.66
65557;BME280;52200;53.490;14.376;2024-01-30T07:37:04;102658.94;;;-0.11;87.44
65557;BME280;52200;53.490;14.376;2024-01-30T07:39:29;102656.44;;;-0.11;87.49
65557;BME280;52200;53.490;14.376;2024-01-30T07:41:55;102658.25;;;-0.25;88.05
65557;BME280;52200;53.490;14.376;2024-01-30T07:44:20;102655.34;;;-0.17;88.21
65557;BME280;52200;53.490;14.376;2024-01-30T07:46:46;102648.09;;;-0.12;87.40
65557;BME280;52200;53.490;14.376;2024-01-30T07:49:11;102650.59;;;-0.12;87.10
65557;BME280;52200;53.490;14.376;2024-01-30T07:51:39;102648.53;;;-0.03;87.37
65557;BME280;52200;53.490;14.376;2024-01-30T07:54:05;102638.53;;;-0.03;87.77
65557;BME280;52200;53.490;14.376;2024-01-30T07:56:30;102649.38;;;0.32;86.98
65557;BME280;52200;53.490;14.376;2024-01-30T07:58:55;102651.22;;;0.37;85.73
65557;BME280;52200;53.490;14.376;2024-01-30T08:01:21;102654.28;;;0.49;85.67
65557;BME280;52200;53.490;14.376;2024-01-30T08:03:46;102655.84;;;0.47;86.17
65557;BME280;52200;53.490;14.376;2024-01-30T08:06:12;102652.50;;;0.46;85.89
65557;BME280;52200;53.490;14.376;2024-01-30T08:08:37;102659.00;;;0.61;85.53
65557;BME280;52200;53.490;14.376;2024-01-30T08:11:03;102663.28;;;0.63;85.83
65557;BME280;52200;53.490;14.376;2024-01-30T08:13:28;102662.56;;;0.66;85.27
65557;BME280;52200;53.490;14.376;2024-01-30T08:15:54;102668.84;;;0.76;85.09
65557;BME280;52200;53.490;14.376;2024-01-30T08:18:19;102671.84;;;0.87;84.76
65557;BME280;52200;53.490;14.376;2024-01-30T08:20:44;102669.75;;;0.78;85.04
65557;BME280;52200;53.490;14.376;2024-01-30T08:23:10;102669.13;;;0.82;85.46
65557;BME280;52200;53.490;14.376;2024-01-30T08:25:35;102659.53;;;0.91;84.67
65557;BME280;52200;53.490;14.376;2024-01-30T08:28:01;102665.00;;;1.02;84.39
65557;BME280;52200;53.490;14.376;2024-01-30T08:30:27;102660.41;;;0.92;84.30
65557;BME280;52200;53.490;14.376;2024-01-30T08:32:52;102670.94;;;1.04;84.46
65557;BME280;52200;53.490;14.376;2024-01-30T08:35:18;102664.31;;;1.24;84.40
65557;BME280;52200;53.490;14.376;2024-01-30T08:37:43;102663.47;;;1.24;84.37
65557;BME280;52200;53.490;14.376;2024-01-30T08:40:09;102654.59;;;1.12;84.53
65557;BME280;52200;53.490;14.376;2024-01-30T08:42:35;102659.56;;;1.31;84.20
65557;BME280;52200;53.490;14.376;2024-01-30T08:45:00;102655.84;;;1.61;84.32
65557;BME280;52200;53.490;14.376;2024-01-30T08:47:26;102657.56;;;1.63;83.16
65557;BME280;52200;53.490;14.376;2024-01-30T08:49:51;102653.31;;;1.81;82.66
65557;BME280;52200;53.490;14.376;2024-01-30T08:52:17;102660.91;;;1.83;82.29
65557;BME280;52200;53.490;14.376;2024-01-30T08:54:42;102656.03;;;1.86;82.67
65557;BME280;52200;53.490;14.376;2024-01-30T08:57:08;102650.63;;;1.98;83.07
65557;BME280;52200;53.490;14.376;2024-01-30T08:59:33;102644.78;;;1.97;82.42
65557;BME280;52200;53.490;14.376;2024-01-30T09:01:59;102641.09;;;1.89;82.89
65557;BME280;52200;53.490;14.376;2024-01-30T09:04:24;102636.13;;;1.90;83.43
65557;BME280;52200;53.490;14.376;2024-01-30T09:06:50;102644.97;;;2.02;83.68
65557;BME280;52200;53.490;14.376;2024-01-30T09:09:16;102646.31;;;2.15;83.65
65557;BME280;52200;53.490;14.376;2024-01-30T09:11:41;102648.06;;;2.17;82.67
65557;BME280;52200;53.490;14.376;2024-01-30T09:14:07;102650.06;;;2.47;82.37
65557;BME280;52200;53.490;14.376;2024-01-30T09:16:32;102650.03;;;2.24;81.71
65557;BME280;52200;53.490;14.376;2024-01-30T09:18:58;102651.44;;;2.39;81.79
65557;BME280;52200;53.490;14.376;2024-01-30T09:21:23;102657.44;;;2.65;81.46
65557;BME280;52200;53.490;14.376;2024-01-30T09:23:49;102651.22;;;2.55;80.93
65557;BME280;52200;53.490;14.376;2024-01-30T09:26:14;102640.84;;;2.69;80.95
65557;BME280;52200;53.490;14.376;2024-01-30T09:28:40;102648.53;;;2.96;79.92
65557;BME280;52200;53.490;14.376;2024-01-30T09:31:11;102654.16;;;2.90;79.94
65557;BME280;52200;53.490;14.376;2024-01-30T09:33:37;102657.94;;;3.26;78.88
65557;BME280;52200;53.490;14.376;2024-01-30T09:36:03;102652.72;;;3.44;78.83
65557;BME280;52200;53.490;14.376;2024-01-30T09:38:28;102645.44;;;3.28;79.57
65557;BME280;52200;53.490;14.376;2024-01-30T09:40:54;102643.63;;;3.23;79.45
65557;BME280;52200;53.490;14.376;2024-01-30T09:43:23;102631.84;;;3.22;79.21
65557;BME280;52200;53.490;14.376;2024-01-30T09:45:50;102646.19;;;3.25;79.49
65557;BME280;52200;53.490;14.376;2024-01-30T09:48:16;102638.25;;;3.14;79.34
65557;BME280;52200;53.490;14.376;2024-01-30T09:50:41;102640.47;;;3.29;78.79
65557;BME280;52200;53.490;14.376;2024-01-30T09:53:08;102634.16;;;3.41;78.70
65557;BME280;52200;53.490;14.376;2024-01-30T09:55:35;102624.84;;;3.64;79.50
65557;BME280;52200;53.490;14.376;2024-01-30T09:58:01;102629.59;;;3.80;78.60
65557;BME280;52200;53.490;14.376;2024-01-30T10:00:27;102626.47;;;3.87;78.45
65557;BME280;52200;53.490;14.376;2024-01-30T10:02:52;102630.56;;;4.11;77.78
65557;BME280;52200;53.490;14.376;2024-01-30T10:05:19;102631.94;;;4.29;77.48
65557;BME280;52200;53.490;14.376;2024-01-30T10:07:55;102628.31;;;4.48;77.49
65557;BME280;52200;53.490;14.376;2024-01-30T10:10:24;102631.91;;;4.56;76.20
65557;BME280;52200;53.490;14.376;2024-01-30T10:12:49;102625.16;;;4.84;74.89
65557;BME280;52200;53.490;14.376;2024-01-30T10:15:15;102630.13;;;5.13;73.91
65557;BME280;52200;53.490;14.376;2024-01-30T10:17:40;102618.34;;;5.12;73.98
65557;BME280;52200;53.490;14.376;2024-01-30T10:20:06;102621.34;;;5.30;73.33
65557;BME280;52200;53.490;14.376;2024-01-30T10:22:33;102605.78;;;5.13;73.50
65557;BME280;52200;53.490;14.376;2024-01-30T10:25:00;102605.22;;;5.24;73.65
65557;BME280;52200;53.490;14.376;2024-01-30T10:27:26;102602.28;;;5.40;72.56
65557;BME280;52200;53.490;14.376;2024-01-30T10:29:52;102599.59;;;5.34;73.41
65557;BME280;52200;53.490;14.376;2024-01-30T10:32:17;102599.38;;;5.25;72.98
65557;BME280;52200;53.490;14.376;2024-01-30T10:34:43;102593.91;;;5.41;72.38
65557;BME280;52200;53.490;14.376;2024-01-30T10:37:09;102585.22;;;5.63;72.48
65557;BME280;52200;53.490;14.376;2024-01-30T10:39:41;102589.34;;;5.61;70.75
65557;BME280;52200;53.490;14.376;2024-01-30T10:42:12;102604.00;;;5.76;70.25
65557;BME280;52200;53.490;14.376;2024-01-30T10:44:56;102598.13;;;5.77;72.07
65557;BME280;52200;53.490;14.376;2024-01-30T10:47:29;102604.47;;;5.61;72.28
65557;BME280;52200;53.490;14.376;2024-01-30T10:49:56;102598.13;;;5.42;72.36
65557;BME280;52200;53.490;14.376;2024-01-30T10:52:23;102598.44;;;5.21;72.02
65557;BME280;52200;53.490;14.376;2024-01-30T10:54:54;102602.44;;;5.14;73.33
65557;BME280;52200;53.490;14.376;2024-01-30T10:57:22;102604.69;;;5.04;72.55
65557;BME280;52200;53.490;14.376;2024-01-30T10:59:49;102603.53;;;5.23;72.64
65557;BME280;52200;53.490;14.376;2024-01-30T11:02:15;102594.97;;;5.49;72.06
65557;BME280;52200;53.490;14.376;2024-01-30T11:04:41;102591.28;;;5.38;72.29
65557;BME280;52200;53.490;14.376;2024-01-30T11:07:25;102597.91;;;5.33;72.99
65557;BME280;52200;53.490;14.376;2024-01-30T11:12:27;102597.38;;;5.45;72.13
65557;BME280;52200;53.490;14.376;2024-01-30T11:15:07;102594.69;;;5.74;70.96
65557;BME280;52200;53.490;14.376;2024-01-30T11:17:45;102587.56;;;5.94;69.67
65557;BME280;52200;53.490;14.376;2024-01-30T11:22:48;102565.19;;;5.70;72.33
65557;BME280;52200;53.490;14.376;2024-01-30T11:25:16;102550.88;;;5.69;71.74
65557;BME280;52200;53.490;14.376;2024-01-30T11:27:43;102544.00;;;5.63;72.24
65557;BME280;52200;53.490;14.376;2024-01-30T11:30:09;102549.28;;;5.72;71.37
65557;BME280;52200;53.490;14.376;2024-01-30T11:32:35;102539.31;;;5.42;71.96
65557;BME280;52200;53.490;14.376;2024-01-30T11:35:03;102540.66;;;5.27;72.33
65557;BME280;52200;53.490;14.376;2024-01-30T11:37:30;102547.16;;;5.54;72.46
65557;BME280;52200;53.490;14.376;2024-01-30T11:39:56;102550.59;;;5.94;72.32
65557;BME280;52200;53.490;14.376;2024-01-30T11:42:24;102550.94;;;6.08;71.67
65557;BME280;52200;53.490;14.376;2024-01-30T11:44:52;102556.31;;;6.24;70.79
65557;BME280;52200;53.490;14.376;2024-01-30T11:47:17;102561.88;;;6.49;69.85
65557;BME280;52200;53.490;14.376;2024-01-30T11:49:43;102559.53;;;6.58;69.17
65557;BME280;52200;53.490;14.376;2024-01-30T11:52:09;102550.06;;;6.48;69.33
65557;BME280;52200;53.490;14.376;2024-01-30T11:54:35;102547.44;;;6.43;69.69
65557;BME280;52200;53.490;14.376;2024-01-30T11:57:01;102540.78;;;6.45;70.05
65557;BME280;52200;53.490;14.376;2024-01-30T11:59:26;102546.84;;;6.55;69.10
65557;BME280;52200;53.490;14.376;2024-01-30T12:01:52;102548.28;;;6.43;70.04
65557;BME280;52200;53.490;14.376;2024-01-30T12:04:17;102542.03;;;6.67;69.13
65557;BME280;52200;53.490;14.376;2024-01-30T12:06:43;102538.81;;;6.74;69.80
65557;BME280;52200;53.490;14.376;2024-01-30T12:09:09;102535.84;;;6.51;69.30
65557;BME280;52200;53.490;14.376;2024-01-30T12:11:48;102532.19;;;6.37;70.47
65557;BME280;52200;53.490;14.376;2024-01-30T12:14:16;102535.41;;;6.29;70.91
65557;BME280;52200;53.490;14.376;2024-01-30T12:16:42;102537.44;;;6.06;71.61
65557;BME280;52200;53.490;14.376;2024-01-30T12:19:07;102529.13;;;6.10;71.51
65557;BME280;52200;53.490;14.376;2024-01-30T12:21:34;102541.19;;;6.24;70.12
65557;BME280;52200;53.490;14.376;2024-01-30T12:24:00;102532.69;;;6.20;71.14
65557;BME280;52200;53.490;14.376;2024-01-30T12:26:26;102530.44;;;5.94;70.62
65557;BME280;52200;53.490;14.376;2024-01-30T12:28:55;102523.38;;;5.79;70.96
65557;BME280;52200;53.490;14.376;2024-01-30T12:31:29;102531.09;;;5.86;71.50
65557;BME280;52200;53.490;14.376;2024-01-30T12:33:59;102518.25;;;5.76;71.71
65557;BME280;52200;53.490;14.376;2024-01-30T12:36:25;102526.56;;;5.72;71.76
65557;BME280;52200;53.490;14.376;2024-01-30T12:38:51;102518.09;;;5.70;72.05
65557;BME280;52200;53.490;14.376;2024-01-30T12:41:17;102511.13;;;5.58;72.15
65557;BME280;52200;53.490;14.376;2024-01-30T12:43:42;102507.59;;;5.52;73.13
65557;BME280;52200;53.490;14.376;2024-01-30T12:46:08;102512.34;;;5.39;72.90